sensor_id;sensor_type;location;lat;lon;timestamp;pressure;altitude;pressure_sealevel;temperature;humidity
53932;BME280;39844;52.496;13.482;2023-09-08T00:01:33;101990.84;;;18.45;79.06
53932;BME280;39844;52.496;13.482;2023-09-08T00:03:58;101993.59;;;18.39;79.49
53932;BME280;39844;52.496;13.482;2023-09-08T00:06:23;101989.25;;;18.33;79.51
53932;BME280;39844;52.496;13.482;2023-09-08T00:08:49;101990.19;;;18.29;80.54
53932;BME280;39844;52.496;13.482;2023-09-08T00:11:14;101984.03;;;18.26;80.36
53932;BME280;39844;52.496;13.482;2023-09-08T00:13:39;101979.66;;;18.23;80.67
53932;BME280;39844;52.496;13.482;2023-09-08T00:16:05;101984.16;;;18.20;80.55
53932;BME280;39844;52.496;13.482;2023-09-08T00:18:30;101977.06;;;18.19;80.71
53932;BME280;39844;52.496;13.482;2023-09-08T00:20:55;101978.88;;;18.17;81.36
53932;BME280;39844;52.496;13.482;2023-09-08T00:23:21;101976.22;;;18.15;81.08
53932;BME280;39844;52.496;13.482;2023-09-08T00:25:46;101978.97;;;18.12;81.65
53932;BME280;39844;52.496;13.482;2023-09-08T00:28:13;101958.63;;;18.10;81.80
53932;BME280;39844;52.496;13.482;2023-09-08T00:30:39;101966.59;;;18.08;82.01
53932;BME280;39844;52.496;13.482;2023-09-08T00:33:04;101964.81;;;18.09;81.23
53932;BME280;39844;52.496;13.482;2023-09-08T00:35:29;101963.00;;;18.12;80.55
53932;BME280;39844;52.496;13.482;2023-09-08T00:37:55;101961.19;;;18.14;80.71
53932;BME280;39844;52.496;13.482;2023-09-08T00:40:20;101957.66;;;18.14;80.73
53932;BME280;39844;52.496;13.482;2023-09-08T00:42:45;101970.09;;;18.12;81.11
53932;BME280;39844;52.496;13.482;2023-09-08T00:45:11;101974.59;;;18.07;81.23
53932;BME280;39844;52.496;13.482;2023-09-08T00:47:36;101979.06;;;18.03;81.95
53932;BME280;39844;52.496;13.482;2023-09-08T00:50:05;101978.25;;;18.00;82.49
53932;BME280;39844;52.496;13.482;2023-09-08T00:52:30;101979.19;;;17.96;82.57
53932;BME280;39844;52.496;13.482;2023-09-08T00:54:56;101977.44;;;17.93;82.94
53932;BME280;39844;52.496;13.482;2023-09-08T00:57:21;101981.88;;;17.93;83.18
53932;BME280;39844;52.496;13.482;2023-09-08T00:59:46;101979.28;;;17.90;83.25
53932;BME280;39844;52.496;13.482;2023-09-08T01:02:12;101984.63;;;17.85;82.84
53932;BME280;39844;52.496;13.482;2023-09-08T01:04:37;101974.94;;;17.83;82.91
53932;BME280;39844;52.496;13.482;2023-09-08T01:07:03;101966.13;;;17.81;83.69
53932;BME280;39844;52.496;13.482;2023-09-08T01:09:28;101980.34;;;17.77;83.79
53932;BME280;39844;52.496;13.482;2023-09-08T01:11:54;101975.97;;;17.73;83.65
53932;BME280;39844;52.496;13.482;2023-09-08T01:14:19;101983.09;;;17.69;84.69
53932;BME280;39844;52.496;13.482;2023-09-08T01:16:44;101971.63;;;17.65;84.66
53932;BME280;39844;52.496;13.482;2023-09-08T01:19:13;101979.63;;;17.62;84.91
53932;BME280;39844;52.496;13.482;2023-09-08T01:27:23;101968.19;;;17.57;85.34
53932;BME280;39844;52.496;13.482;2023-09-08T01:29:51;101966.44;;;17.56;86.01
53932;BME280;39844;52.496;13.482;2023-09-08T01:32:18;101962.91;;;17.56;86.30
53932;BME280;39844;52.496;13.482;2023-09-08T01:34:44;101955.88;;;17.53;85.42
53932;BME280;39844;52.496;13.482;2023-09-08T01:37:09;101962.06;;;17.52;85.32
53932;BME280;39844;52.496;13.482;2023-09-08T01:39:34;101956.75;;;17.49;85.30
53932;BME280;39844;52.496;13.482;2023-09-08T01:42:02;101955.00;;;17.47;85.26
53932;BME280;39844;52.496;13.482;2023-09-08T01:44:27;101952.38;;;17.45;85.37
53932;BME280;39844;52.496;13.482;2023-09-08T01:46:52;101963.91;;;17.46;85.56
53932;BME280;39844;52.496;13.482;2023-09-08T01:49:18;101956.84;;;17.43;85.72
53932;BME280;39844;52.496;13.482;2023-09-08T01:51:43;101960.38;;;17.42;85.85
53932;BME280;39844;52.496;13.482;2023-09-08T01:54:08;101951.59;;;17.39;86.13
53932;BME280;39844;52.496;13.482;2023-09-08T01:56:33;101952.50;;;17.35;86.10
53932;BME280;39844;52.496;13.482;2023-09-08T01:58:59;101956.94;;;17.34;86.35
53932;BME280;39844;52.496;13.482;2023-09-08T02:01:24;101948.13;;;17.32;86.43
53932;BME280;39844;52.496;13.482;2023-09-08T02:03:49;101955.25;;;17.29;86.71
53932;BME280;39844;52.496;13.482;2023-09-08T02:06:15;101954.41;;;17.25;86.91
53932;BME280;39844;52.496;13.482;2023-09-08T02:08:40;101953.53;;;17.25;87.66
53932;BME280;39844;52.496;13.482;2023-09-08T02:11:05;101949.13;;;17.24;87.29
53932;BME280;39844;52.496;13.482;2023-09-08T02:13:30;101953.53;;;17.25;87.01
53932;BME280;39844;52.496;13.482;2023-09-08T02:15:56;101950.91;;;17.23;86.81
53932;BME280;39844;52.496;13.482;2023-09-08T02:18:21;101950.03;;;17.21;87.36
53932;BME280;39844;52.496;13.482;2023-09-08T02:20:46;101940.31;;;17.20;87.12
53932;BME280;39844;52.496;13.482;2023-09-08T02:23:12;101948.25;;;17.23;86.57
53932;BME280;39844;52.496;13.482;2023-09-08T02:25:37;101947.31;;;17.27;85.78
53932;BME280;39844;52.496;13.482;2023-09-08T02:28:02;101945.50;;;17.31;85.56
53932;BME280;39844;52.496;13.482;2023-09-08T02:30:28;101947.22;;;17.32;85.28
53932;BME280;39844;52.496;13.482;2023-09-08T02:32:53;101949.91;;;17.33;84.91
53932;BME280;39844;52.496;13.482;2023-09-08T02:35:18;101943.66;;;17.34;85.32
53932;BME280;39844;52.496;13.482;2023-09-08T02:37:43;101942.81;;;17.34;85.18
53932;BME280;39844;52.496;13.482;2023-09-08T02:40:09;101941.94;;;17.33;85.05
53932;BME280;39844;52.496;13.482;2023-09-08T02:42:34;101943.72;;;17.30;85.00
53932;BME280;39844;52.496;13.482;2023-09-08T02:48:02;101942.03;;;17.24;86.22
53932;BME280;39844;52.496;13.482;2023-09-08T02:50:27;101935.88;;;17.21;86.15
53932;BME280;39844;52.496;13.482;2023-09-08T02:52:53;101932.38;;;17.17;86.50
53932;BME280;39844;52.496;13.482;2023-09-08T02:55:18;101935.06;;;17.14;86.43
53932;BME280;39844;52.496;13.482;2023-09-08T02:57:43;101932.41;;;17.14;86.63
53932;BME280;39844;52.496;13.482;2023-09-08T03:00:09;101931.56;;;17.12;86.13
53932;BME280;39844;52.496;13.482;2023-09-08T03:02:34;101934.25;;;17.09;86.49
53932;BME280;39844;52.496;13.482;2023-09-08T03:05:00;101934.25;;;17.06;87.08
53932;BME280;39844;52.496;13.482;2023-09-08T03:07:26;101921.94;;;17.02;87.60
53932;BME280;39844;52.496;13.482;2023-09-08T03:09:52;101923.75;;;17.00;87.53
53932;BME280;39844;52.496;13.482;2023-09-08T03:12:17;101929.94;;;16.99;87.82
53932;BME280;39844;52.496;13.482;2023-09-08T03:14:42;101922.00;;;16.96;87.87
53932;BME280;39844;52.496;13.482;2023-09-08T03:17:08;101922.94;;;16.92;88.25
53932;BME280;39844;52.496;13.482;2023-09-08T03:19:33;101925.66;;;16.87;88.25
53932;BME280;39844;52.496;13.482;2023-09-08T03:21:58;101916.88;;;16.82;88.66
53932;BME280;39844;52.496;13.482;2023-09-08T03:24:24;101917.78;;;16.78;89.53
53932;BME280;39844;52.496;13.482;2023-09-08T03:26:49;101916.03;;;16.76;90.17
53932;BME280;39844;52.496;13.482;2023-09-08T03:29:14;101912.53;;;16.74;90.35
53932;BME280;39844;52.496;13.482;2023-09-08T03:31:39;101919.63;;;16.72;89.39
53932;BME280;39844;52.496;13.482;2023-09-08T03:34:05;101920.53;;;16.69;89.81
53932;BME280;39844;52.496;13.482;2023-09-08T03:36:30;101922.31;;;16.66;90.20
53932;BME280;39844;52.496;13.482;2023-09-08T03:38:55;101925.00;;;16.63;90.58
53932;BME280;39844;52.496;13.482;2023-09-08T03:41:21;101927.69;;;16.58;90.88
53932;BME280;39844;52.496;13.482;2023-09-08T03:43:46;101928.59;;;16.56;91.52
53932;BME280;39844;52.496;13.482;2023-09-08T03:46:11;101932.16;;;16.52;91.63
53932;BME280;39844;52.496;13.482;2023-09-08T03:48:36;101930.44;;;16.46;92.06
53932;BME280;39844;52.496;13.482;2023-09-08T03:51:02;101935.75;;;16.43;92.81
53932;BME280;39844;52.496;13.482;2023-09-08T03:53:27;101933.16;;;16.38;92.54
53932;BME280;39844;52.496;13.482;2023-09-08T03:55:54;101934.09;;;16.34;92.83
53932;BME280;39844;52.496;13.482;2023-09-08T03:58:20;101933.22;;;16.31;93.29
53932;BME280;39844;52.496;13.482;2023-09-08T04:00:45;101933.25;;;16.29;94.42
53932;BME280;39844;52.496;13.482;2023-09-08T04:03:11;101935.91;;;16.26;94.49
53932;BME280;39844;52.496;13.482;2023-09-08T04:05:36;101935.06;;;16.24;94.12
53932;BME280;39844;52.496;13.482;2023-09-08T04:08:01;101935.94;;;16.22;94.70
53932;BME280;39844;52.496;13.482;2023-09-08T04:10:26;101937.72;;;16.18;94.72
53932;BME280;39844;52.496;13.482;2023-09-08T04:12:52;101938.63;;;16.16;95.08
53932;BME280;39844;52.496;13.482;2023-09-08T04:15:17;101938.63;;;16.16;95.92
53932;BME280;39844;52.496;13.482;2023-09-08T04:17:42;101934.25;;;16.13;96.29
53932;BME280;39844;52.496;13.482;2023-09-08T04:20:08;101937.81;;;16.09;96.25
53932;BME280;39844;52.496;13.482;2023-09-08T04:22:34;101932.50;;;16.08;97.10
53932;BME280;39844;52.496;13.482;2023-09-08T04:25:00;101940.47;;;16.05;97.03
53932;BME280;39844;52.496;13.482;2023-09-08T04:27:25;101939.59;;;16.04;97.56
53932;BME280;39844;52.496;13.482;2023-09-08T04:29:50;101934.28;;;16.04;97.93
53932;BME280;39844;52.496;13.482;2023-09-08T04:32:16;101933.44;;;16.02;97.89
53932;BME280;39844;52.496;13.482;2023-09-08T04:34:42;101936.09;;;16.04;98.36
53932;BME280;39844;52.496;13.482;2023-09-08T04:37:07;101941.34;;;16.05;97.73
53932;BME280;39844;52.496;13.482;2023-09-08T04:39:33;101942.22;;;16.07;97.49
53932;BME280;39844;52.496;13.482;2023-09-08T04:41:59;101942.22;;;16.07;97.73
53932;BME280;39844;52.496;13.482;2023-09-08T04:44:24;101935.19;;;16.06;97.01
53932;BME280;39844;52.496;13.482;2023-09-08T04:46:51;101942.22;;;16.04;96.24
53932;BME280;39844;52.496;13.482;2023-09-08T04:49:16;101937.84;;;16.03;96.95
53932;BME280;39844;52.496;13.482;2023-09-08T04:51:41;101935.19;;;16.03;97.13
53932;BME280;39844;52.496;13.482;2023-09-08T04:54:07;101940.47;;;16.02;97.35
53932;BME280;39844;52.496;13.482;2023-09-08T04:56:32;101944.88;;;16.04;97.89
53932;BME280;39844;52.496;13.482;2023-09-08T04:58:57;101941.34;;;16.05;98.02
53932;BME280;39844;52.496;13.482;2023-09-08T05:01:23;101947.53;;;16.06;97.37
53932;BME280;39844;52.496;13.482;2023-09-08T05:03:48;101944.88;;;16.06;97.74
53932;BME280;39844;52.496;13.482;2023-09-08T05:06:13;101941.34;;;16.05;97.58
53932;BME280;39844;52.496;13.482;2023-09-08T05:08:39;101947.50;;;16.07;98.06
53932;BME280;39844;52.496;13.482;2023-09-08T05:11:04;101945.75;;;16.09;97.79
53932;BME280;39844;52.496;13.482;2023-09-08T05:13:30;101946.63;;;16.11;97.68
53932;BME280;39844;52.496;13.482;2023-09-08T05:15:55;101947.44;;;16.18;96.79
53932;BME280;39844;52.496;13.482;2023-09-08T05:18:20;101950.03;;;16.27;95.27
53932;BME280;39844;52.496;13.482;2023-09-08T05:20:47;101951.72;;;16.35;93.92
53932;BME280;39844;52.496;13.482;2023-09-08T05:23:12;101951.66;;;16.43;93.12
53932;BME280;39844;52.496;13.482;2023-09-08T05:25:38;101946.28;;;16.51;92.73
53932;BME280;39844;52.496;13.482;2023-09-08T05:28:03;101937.41;;;16.58;91.49
53932;BME280;39844;52.496;13.482;2023-09-08T05:30:28;101943.56;;;16.64;90.70
53932;BME280;39844;52.496;13.482;2023-09-08T05:32:54;101942.63;;;16.70;90.52
53932;BME280;39844;52.496;13.482;2023-09-08T05:35:19;101939.94;;;16.74;90.04
53932;BME280;39844;52.496;13.482;2023-09-08T05:37:44;101944.28;;;16.78;89.18
53932;BME280;39844;52.496;13.482;2023-09-08T05:40:10;101946.94;;;16.83;88.92
53932;BME280;39844;52.496;13.482;2023-09-08T05:42:35;101947.75;;;16.86;88.76
53932;BME280;39844;52.496;13.482;2023-09-08T05:45:01;101943.28;;;16.91;87.93
53932;BME280;39844;52.496;13.482;2023-09-08T05:47:26;101947.66;;;16.94;87.19
53932;BME280;39844;52.496;13.482;2023-09-08T05:49:51;101943.22;;;16.97;87.11
53932;BME280;39844;52.496;13.482;2023-09-08T05:52:16;101952.00;;;17.01;86.22
53932;BME280;39844;52.496;13.482;2023-09-08T05:54:42;101947.53;;;17.06;85.80
53932;BME280;39844;52.496;13.482;2023-09-08T05:57:07;101954.59;;;17.10;85.79
53932;BME280;39844;52.496;13.482;2023-09-08T05:59:32;101964.25;;;17.16;85.60
53932;BME280;39844;52.496;13.482;2023-09-08T06:01:58;101950.03;;;17.20;84.88
53932;BME280;39844;52.496;13.482;2023-09-08T06:04:23;101947.41;;;17.21;84.69
53932;BME280;39844;52.496;13.482;2023-09-08T06:06:49;101949.09;;;17.25;84.33
53932;BME280;39844;52.496;13.482;2023-09-08T06:09:14;101946.38;;;17.31;84.26
53932;BME280;39844;52.496;13.482;2023-09-08T06:11:40;101942.78;;;17.35;84.13
53932;BME280;39844;52.496;13.482;2023-09-08T06:14:05;101949.81;;;17.39;83.28
53932;BME280;39844;52.496;13.482;2023-09-08T06:16:31;101949.78;;;17.44;83.11
53932;BME280;39844;52.496;13.482;2023-09-08T06:18:57;101948.81;;;17.48;83.47
53932;BME280;39844;52.496;13.482;2023-09-08T06:21:22;101945.25;;;17.53;83.26
53932;BME280;39844;52.496;13.482;2023-09-08T06:23:47;101941.63;;;17.57;82.71
53932;BME280;39844;52.496;13.482;2023-09-08T06:26:13;101938.06;;;17.61;82.45
53932;BME280;39844;52.496;13.482;2023-09-08T06:28:38;101936.22;;;17.66;82.26
53932;BME280;39844;52.496;13.482;2023-09-08T06:31:04;101938.78;;;17.74;81.97
53932;BME280;39844;52.496;13.482;2023-09-08T06:33:29;101945.78;;;17.78;81.52
53932;BME280;39844;52.496;13.482;2023-09-08T06:35:55;101942.16;;;17.84;81.55
53932;BME280;39844;52.496;13.482;2023-09-08T06:38:20;101936.78;;;17.90;81.01
53932;BME280;39844;52.496;13.482;2023-09-08T06:40:45;101934.00;;;17.96;80.65
53932;BME280;39844;52.496;13.482;2023-09-08T06:43:11;101933.94;;;18.02;80.80
53932;BME280;39844;52.496;13.482;2023-09-08T06:45:39;101938.25;;;18.09;80.78
53932;BME280;39844;52.496;13.482;2023-09-08T06:48:04;101930.19;;;18.15;80.78
53932;BME280;39844;52.496;13.482;2023-09-08T06:50:30;101933.63;;;18.21;80.52
53932;BME280;39844;52.496;13.482;2023-09-08T06:52:55;101931.72;;;18.28;80.10
53932;BME280;39844;52.496;13.482;2023-09-08T06:55:20;101928.09;;;18.35;79.34
53932;BME280;39844;52.496;13.482;2023-09-08T06:57:46;101927.97;;;18.41;79.22
53932;BME280;39844;52.496;13.482;2023-09-08T07:00:12;101928.75;;;18.49;78.73
53932;BME280;39844;52.496;13.482;2023-09-08T07:02:39;101925.94;;;18.57;78.51
53932;BME280;39844;52.496;13.482;2023-09-08T07:05:04;101932.91;;;18.65;78.49
53932;BME280;39844;52.496;13.482;2023-09-08T07:07:29;101931.00;;;18.73;77.77
53932;BME280;39844;52.496;13.482;2023-09-08T07:09:55;101929.91;;;18.82;77.46
53932;BME280;39844;52.496;13.482;2023-09-08T07:12:20;101928.03;;;18.88;77.56
53932;BME280;39844;52.496;13.482;2023-09-08T07:14:45;101932.38;;;18.94;77.40
53932;BME280;39844;52.496;13.482;2023-09-08T07:17:13;101933.19;;;18.98;78.32
53932;BME280;39844;52.496;13.482;2023-09-08T07:19:38;101933.13;;;19.01;79.33
53932;BME280;39844;52.496;13.482;2023-09-08T07:22:03;101937.50;;;19.03;79.89
53932;BME280;39844;52.496;13.482;2023-09-08T07:24:29;101940.13;;;19.06;79.38
53932;BME280;39844;52.496;13.482;2023-09-08T07:26:54;101940.91;;;19.10;80.07
53932;BME280;39844;52.496;13.482;2023-09-08T07:29:19;101933.81;;;19.12;79.49
53932;BME280;39844;52.496;13.482;2023-09-08T07:31:44;101937.25;;;19.17;78.79
53932;BME280;39844;52.496;13.482;2023-09-08T07:34:10;101930.00;;;19.23;78.19
53932;BME280;39844;52.496;13.482;2023-09-08T07:36:36;101933.41;;;19.30;78.38
53932;BME280;39844;52.496;13.482;2023-09-08T07:39:01;101930.63;;;19.37;77.74
53932;BME280;39844;52.496;13.482;2023-09-08T07:41:26;101936.72;;;19.44;77.72
53932;BME280;39844;52.496;13.482;2023-09-08T07:43:52;101931.28;;;19.48;78.08
53932;BME280;39844;52.496;13.482;2023-09-08T07:46:17;101932.06;;;19.53;77.00
53932;BME280;39844;52.496;13.482;2023-09-08T07:48:42;101933.66;;;19.62;76.56
53932;BME280;39844;52.496;13.482;2023-09-08T07:51:07;101932.59;;;19.69;76.83
53932;BME280;39844;52.496;13.482;2023-09-08T07:53:33;101934.22;;;19.76;76.64
53932;BME280;39844;52.496;13.482;2023-09-08T07:55:58;101939.38;;;19.84;75.93
53932;BME280;39844;52.496;13.482;2023-09-08T07:58:23;101933.88;;;19.91;76.00
53932;BME280;39844;52.496;13.482;2023-09-08T08:00:49;101938.13;;;20.00;75.32
53932;BME280;39844;52.496;13.482;2023-09-08T08:03:14;101932.56;;;20.09;75.38
53932;BME280;39844;52.496;13.482;2023-09-08T08:05:39;101940.38;;;20.16;74.65
53932;BME280;39844;52.496;13.482;2023-09-08T08:08:05;101942.91;;;20.23;73.52
53932;BME280;39844;52.496;13.482;2023-09-08T08:10:30;101939.97;;;20.35;73.64
53932;BME280;39844;52.496;13.482;2023-09-08T08:12:55;101939.75;;;20.44;73.05
53932;BME280;39844;52.496;13.482;2023-09-08T08:15:20;101939.56;;;20.51;73.17
53932;BME280;39844;52.496;13.482;2023-09-08T08:17:46;101935.00;;;20.55;73.16
53932;BME280;39844;52.496;13.482;2023-09-08T08:20:11;101933.06;;;20.61;72.88
53932;BME280;39844;52.496;13.482;2023-09-08T08:22:37;101940.03;;;20.67;72.66
53932;BME280;39844;52.496;13.482;2023-09-08T08:25:03;101931.84;;;20.73;72.29
53932;BME280;39844;52.496;13.482;2023-09-08T08:27:28;101935.19;;;20.81;71.91
53932;BME280;39844;52.496;13.482;2023-09-08T08:29:53;101935.06;;;20.87;72.02
53932;BME280;39844;52.496;13.482;2023-09-08T08:32:19;101925.06;;;20.94;72.07
53932;BME280;39844;52.496;13.482;2023-09-08T08:34:44;101925.75;;;21.00;71.63
53932;BME280;39844;52.496;13.482;2023-09-08T08:37:12;101929.13;;;21.08;70.81
53932;BME280;39844;52.496;13.482;2023-09-08T08:39:37;101930.69;;;21.15;70.19
53932;BME280;39844;52.496;13.482;2023-09-08T08:42:10;101921.56;;;21.24;69.54
53932;BME280;39844;52.496;13.482;2023-09-08T08:44:37;101925.78;;;21.32;68.37
53932;BME280;39844;52.496;13.482;2023-09-08T08:47:06;101921.03;;;21.42;66.93
53932;BME280;39844;52.496;13.482;2023-09-08T08:49:32;101926.06;;;21.53;65.99
53932;BME280;39844;52.496;13.482;2023-09-08T08:52:01;101914.09;;;21.64;65.23
53932;BME280;39844;52.496;13.482;2023-09-08T08:54:28;101922.69;;;21.75;64.16
53932;BME280;39844;52.496;13.482;2023-09-08T08:56:53;101918.75;;;21.88;65.38
53932;BME280;39844;52.496;13.482;2023-09-08T08:59:19;101913.09;;;21.97;64.96
53932;BME280;39844;52.496;13.482;2023-09-08T09:01:45;101913.78;;;22.04;64.23
53932;BME280;39844;52.496;13.482;2023-09-08T09:04:10;101917.06;;;22.12;62.43
53932;BME280;39844;52.496;13.482;2023-09-08T09:06:37;101917.69;;;22.20;61.89
53932;BME280;39844;52.496;13.482;2023-09-08T09:09:02;101911.09;;;22.30;61.36
53932;BME280;39844;52.496;13.482;2023-09-08T09:11:28;101913.53;;;22.38;61.33
53932;BME280;39844;52.496;13.482;2023-09-08T09:13:53;101911.47;;;22.46;61.16
53932;BME280;39844;52.496;13.482;2023-09-08T09:16:18;101911.28;;;22.52;61.99
53932;BME280;39844;52.496;13.482;2023-09-08T09:21:19;101918.09;;;22.62;61.53
53932;BME280;39844;52.496;13.482;2023-09-08T09:23:47;101909.81;;;22.68;61.14
53932;BME280;39844;52.496;13.482;2023-09-08T09:26:26;101906.06;;;22.74;61.45
53932;BME280;39844;52.496;13.482;2023-09-08T09:28:54;101908.56;;;22.78;60.86
53932;BME280;39844;52.496;13.482;2023-09-08T09:31:24;101909.25;;;22.85;59.89
53932;BME280;39844;52.496;13.482;2023-09-08T09:34:04;101896.47;;;22.93;60.03
53932;BME280;39844;52.496;13.482;2023-09-08T09:36:39;101903.44;;;22.97;59.75
53932;BME280;39844;52.496;13.482;2023-09-08T09:39:05;101901.47;;;23.02;60.14
53932;BME280;39844;52.496;13.482;2023-09-08T09:41:35;101900.31;;;23.09;59.54
53932;BME280;39844;52.496;13.482;2023-09-08T09:44:04;101892.94;;;23.15;59.02
53932;BME280;39844;52.496;13.482;2023-09-08T09:46:35;101897.00;;;23.25;59.64
53932;BME280;39844;52.496;13.482;2023-09-08T09:49:01;101894.16;;;23.30;59.08
53932;BME280;39844;52.496;13.482;2023-09-08T09:51:27;101889.56;;;23.34;59.00
53932;BME280;39844;52.496;13.482;2023-09-08T09:53:54;101890.22;;;23.40;58.26
53932;BME280;39844;52.496;13.482;2023-09-08T09:56:22;101885.56;;;23.45;57.16
53932;BME280;39844;52.496;13.482;2023-09-08T09:58:52;101886.94;;;23.55;57.09
53932;BME280;39844;52.496;13.482;2023-09-08T10:01:21;101888.44;;;23.62;56.10
53932;BME280;39844;52.496;13.482;2023-09-08T10:03:51;101884.47;;;23.72;56.12
53932;BME280;39844;52.496;13.482;2023-09-08T10:06:19;101886.00;;;23.79;55.52
53932;BME280;39844;52.496;13.482;2023-09-08T10:08:50;101884.69;;;23.89;55.42
53932;BME280;39844;52.496;13.482;2023-09-08T10:11:19;101878.25;;;23.94;55.41
53932;BME280;39844;52.496;13.482;2023-09-08T10:13:47;101879.13;;;23.94;55.14
53932;BME280;39844;52.496;13.482;2023-09-08T10:16:16;101883.53;;;23.95;55.08
53932;BME280;39844;52.496;13.482;2023-09-08T10:18:50;101869.06;;;23.99;54.68
53932;BME280;39844;52.496;13.482;2023-09-08T10:21:21;101864.44;;;24.03;54.17
53932;BME280;39844;52.496;13.482;2023-09-08T10:24:06;101866.03;;;24.08;54.51
53932;BME280;39844;52.496;13.482;2023-09-08T10:26:37;101866.66;;;24.15;54.90
53932;BME280;39844;52.496;13.482;2023-09-08T10:29:05;101872.59;;;24.23;54.28
53932;BME280;39844;52.496;13.482;2023-09-08T10:31:33;101867.91;;;24.28;55.02
53932;BME280;39844;52.496;13.482;2023-09-08T10:33:59;101867.63;;;24.34;55.32
53932;BME280;39844;52.496;13.482;2023-09-08T10:36:25;101863.88;;;24.38;55.59
53932;BME280;39844;52.496;13.482;2023-09-08T10:38:51;101856.50;;;24.43;56.07
53932;BME280;39844;52.496;13.482;2023-09-08T10:44:02;101856.00;;;24.53;55.97
53932;BME280;39844;52.496;13.482;2023-09-08T10:46:36;101856.69;;;24.59;56.14
53932;BME280;39844;52.496;13.482;2023-09-08T10:49:04;101858.34;;;24.61;55.84
53932;BME280;39844;52.496;13.482;2023-09-08T10:51:33;101853.63;;;24.68;56.49
53932;BME280;39844;52.496;13.482;2023-09-08T10:53:58;101848.78;;;24.76;54.39
53932;BME280;39844;52.496;13.482;2023-09-08T10:56:47;101853.34;;;24.94;56.62
53932;BME280;39844;52.496;13.482;2023-09-08T10:59:12;101852.44;;;25.13;54.37
53932;BME280;39844;52.496;13.482;2023-09-08T11:01:38;101847.31;;;25.46;55.45
53932;BME280;39844;52.496;13.482;2023-09-08T11:04:07;101843.56;;;25.86;53.34
53932;BME280;39844;52.496;13.482;2023-09-08T11:06:33;101844.34;;;26.24;52.29
53932;BME280;39844;52.496;13.482;2023-09-08T11:09:06;101841.97;;;26.69;50.93
53932;BME280;39844;52.496;13.482;2023-09-08T11:11:35;101828.63;;;27.16;48.31
53932;BME280;39844;52.496;13.482;2023-09-08T11:14:04;101835.47;;;27.54;47.18
53932;BME280;39844;52.496;13.482;2023-09-08T11:16:30;101838.38;;;27.97;45.85
53932;BME280;39844;52.496;13.482;2023-09-08T11:19:03;101835.88;;;28.39;45.94
53932;BME280;39844;52.496;13.482;2023-09-08T11:21:28;101831.91;;;28.74;43.51
53932;BME280;39844;52.496;13.482;2023-09-08T11:23:54;101836.16;;;29.07;43.84
53932;BME280;39844;52.496;13.482;2023-09-08T11:26:22;101831.53;;;29.37;43.31
53932;BME280;39844;52.496;13.482;2023-09-08T11:28:47;101824.34;;;29.64;41.42
53932;BME280;39844;52.496;13.482;2023-09-08T11:31:13;101828.13;;;29.88;40.64
53932;BME280;39844;52.496;13.482;2023-09-08T11:33:38;101824.56;;;30.15;39.99
53932;BME280;39844;52.496;13.482;2023-09-08T11:36:11;101826.78;;;30.35;39.32
53932;BME280;39844;52.496;13.482;2023-09-08T11:38:36;101821.59;;;30.57;39.73
53932;BME280;39844;52.496;13.482;2023-09-08T11:41:02;101819.34;;;30.76;39.33
53932;BME280;39844;52.496;13.482;2023-09-08T11:43:27;101811.75;;;31.06;38.64
53932;BME280;39844;52.496;13.482;2023-09-08T11:45:52;101817.25;;;31.17;37.46
53932;BME280;39844;52.496;13.482;2023-09-08T11:48:19;101818.63;;;31.36;38.24
53932;BME280;39844;52.496;13.482;2023-09-08T11:50:44;101816.78;;;31.49;37.69
53932;BME280;39844;52.496;13.482;2023-09-08T11:53:10;101809.75;;;31.70;37.56
53932;BME280;39844;52.496;13.482;2023-09-08T11:55:35;101807.34;;;31.78;35.19
53932;BME280;39844;52.496;13.482;2023-09-08T11:58:01;101808.59;;;31.85;36.75
53932;BME280;39844;52.496;13.482;2023-09-08T12:00:27;101809.94;;;32.03;36.14
53932;BME280;39844;52.496;13.482;2023-09-08T12:02:52;101794.38;;;32.05;34.80
53932;BME280;39844;52.496;13.482;2023-09-08T12:05:22;101801.50;;;32.19;35.47
53932;BME280;39844;52.496;13.482;2023-09-08T12:07:52;101790.41;;;32.33;35.06
53932;BME280;39844;52.496;13.482;2023-09-08T12:10:17;101788.91;;;32.40;34.53
53932;BME280;39844;52.496;13.482;2023-09-08T12:15:09;101788.56;;;32.33;33.97
53932;BME280;39844;52.496;13.482;2023-09-08T12:17:46;101775.94;;;32.32;34.51
53932;BME280;39844;52.496;13.482;2023-09-08T12:20:14;101775.97;;;32.43;34.12
53932;BME280;39844;52.496;13.482;2023-09-08T12:22:47;101772.31;;;32.56;35.92
53932;BME280;39844;52.496;13.482;2023-09-08T12:25:12;101770.31;;;32.58;35.88
53932;BME280;39844;52.496;13.482;2023-09-08T12:27:38;101774.16;;;32.66;36.50
53932;BME280;39844;52.496;13.482;2023-09-08T12:30:04;101764.41;;;32.64;36.88
53932;BME280;39844;52.496;13.482;2023-09-08T12:32:31;101775.28;;;32.64;36.57
53932;BME280;39844;52.496;13.482;2023-09-08T12:34:58;101773.78;;;32.60;36.21
53932;BME280;39844;52.496;13.482;2023-09-08T12:37:24;101754.50;;;32.63;35.30
53932;BME280;39844;52.496;13.482;2023-09-08T12:39:50;101762.19;;;32.69;36.41
53932;BME280;39844;52.496;13.482;2023-09-08T12:42:16;101757.09;;;32.75;36.02
53932;BME280;39844;52.496;13.482;2023-09-08T12:44:41;101748.44;;;32.70;33.02
53932;BME280;39844;52.496;13.482;2023-09-08T12:47:07;101753.88;;;32.70;33.43
53932;BME280;39844;52.496;13.482;2023-09-08T12:49:32;101746.84;;;32.79;33.91
53932;BME280;39844;52.496;13.482;2023-09-08T12:51:57;101744.84;;;32.81;34.59